Time;durP1;ratioP1;P1;durP2;ratioP2;P2;SDS_P1;SDS_P2;PMS_P1;PMS_P2;Temp;Humidity;BMP_temperature;BMP_pressure;BME280_temperature;BME280_humidity;BME280_pressure;Samples;Min_cycle;Max_cycle;Signal;HPM_P1;HPM_P2
2022/03/13 00:00:12;;;;;;;21.45;9.40;;;2.80;99.90;;;;;;5075936;28;20032;-72
2022/03/13 00:02:40;;;;;;;18.15;10.23;;;2.80;99.90;;;;;;5077289;28;20097;-70
2022/03/13 00:05:14;;;;;;;22.08;10.43;;;2.70;99.90;;;;;;5077723;28;20563;-70
2022/03/13 00:07:44;;;;;;;19.48;10.40;;;2.80;99.90;;;;;;5078334;28;20040;-70
2022/03/13 00:10:10;;;;;;;20.38;9.63;;;2.70;99.90;;;;;;5078976;28;20089;-70
2022/03/13 00:12:37;;;;;;;19.35;10.70;;;2.70;99.90;;;;;;5078063;28;20032;-70
2022/03/13 00:15:12;;;;;;;18.42;10.13;;;2.70;99.90;;;;;;5077638;28;20648;-70
2022/03/13 00:17:38;;;;;;;22.60;10.63;;;2.70;99.90;;;;;;5071483;28;21270;-70
2022/03/13 00:20:07;;;;;;;18.73;10.15;;;2.70;99.90;;;;;;5065290;28;20487;-70
2022/03/13 00:22:34;;;;;;;18.70;10.30;;;2.70;99.90;;;;;;5065864;28;20036;-70
2022/03/13 00:25:10;;;;;;;22.73;10.75;;;2.70;99.90;;;;;;5064944;28;20039;-70
2022/03/13 00:27:36;;;;;;;20.52;11.13;;;2.60;99.90;;;;;;5065482;28;20064;-69
2022/03/13 00:30:05;;;;;;;22.08;9.77;;;2.50;99.90;;;;;;5063750;28;20615;-70
2022/03/13 00:32:31;;;;;;;23.63;11.50;;;2.50;99.90;;;;;;5065064;28;20041;-71
2022/03/13 00:34:56;;;;;;;19.88;10.32;;;2.40;99.90;;;;;;5066048;28;20042;-70
2022/03/13 00:37:22;;;;;;;17.15;9.52;;;2.40;99.90;;;;;;5066132;28;20446;-70
2022/03/13 00:39:50;;;;;;;19.92;10.30;;;2.40;99.90;;;;;;5079962;28;20043;-70
2022/03/13 00:42:17;;;;;;;18.90;9.75;;;2.40;99.90;;;;;;5067665;28;20097;-70
2022/03/13 00:44:42;;;;;;;21.63;10.93;;;2.40;99.90;;;;;;5065141;28;20480;-70
2022/03/13 00:47:08;;;;;;;21.13;10.63;;;2.40;99.90;;;;;;5074164;28;20089;-70
2022/03/13 00:49:34;;;;;;;17.88;10.10;;;2.40;99.90;;;;;;5078118;28;20051;-70
2022/03/13 00:52:01;;;;;;;16.27;9.50;;;2.30;99.90;;;;;;5076679;28;20033;-70
2022/03/13 00:54:28;;;;;;;19.75;10.77;;;2.30;99.90;;;;;;5076642;28;20563;-70
2022/03/13 00:56:54;;;;;;;21.75;11.20;;;2.20;99.90;;;;;;5079183;28;20114;-70
2022/03/13 00:59:20;;;;;;;19.25;10.15;;;2.20;99.90;;;;;;5065554;28;20044;-70
2022/03/13 01:01:46;;;;;;;24.67;10.45;;;2.20;99.90;;;;;;5064531;28;20040;-70
2022/03/13 01:04:12;;;;;;;26.33;9.63;;;2.10;99.90;;;;;;5072644;28;20060;-68
2022/03/13 01:06:38;;;;;;;20.80;10.18;;;2.10;99.90;;;;;;5065243;28;20082;-68
2022/03/13 01:09:03;;;;;;;26.00;10.52;;;2.00;99.90;;;;;;5065105;28;20121;-68
2022/03/13 01:11:29;;;;;;;19.42;10.63;;;1.90;99.90;;;;;;5065028;28;20055;-69
2022/03/13 01:13:55;;;;;;;19.27;10.25;;;1.90;99.90;;;;;;5064748;28;20148;-69
2022/03/13 01:16:24;;;;;;;20.33;9.88;;;1.80;99.90;;;;;;5065783;28;20389;-68
2022/03/13 01:18:59;;;;;;;20.67;10.20;;;1.90;99.90;;;;;;5065732;28;20040;-69
2022/03/13 01:21:26;;;;;;;18.95;9.70;;;1.80;99.90;;;;;;5065097;28;20102;-69
2022/03/13 01:24:00;;;;;;;18.20;9.55;;;1.90;99.90;;;;;;5065129;28;20044;-68
2022/03/13 01:26:26;;;;;;;22.17;10.27;;;1.80;99.90;;;;;;5064760;28;20052;-68
2022/03/13 01:28:57;;;;;;;19.63;9.52;;;1.80;99.90;;;;;;5064998;28;20516;-69
2022/03/13 01:31:25;;;;;;;19.00;9.48;;;1.80;99.90;;;;;;5065754;28;20141;-68
2022/03/13 01:33:51;;;;;;;16.75;9.60;;;1.70;99.90;;;;;;5067671;28;20040;-68
2022/03/13 01:36:16;;;;;;;18.38;9.75;;;1.70;99.90;;;;;;5065473;28;20040;-68
2022/03/13 01:38:42;;;;;;;18.23;9.77;;;1.70;99.90;;;;;;5065327;28;20115;-68
2022/03/13 01:41:08;;;;;;;17.15;8.82;;;1.70;99.90;;;;;;5065090;28;20072;-68
2022/03/13 01:43:35;;;;;;;20.65;9.45;;;1.70;99.90;;;;;;5063976;28;20076;-69
2022/03/13 01:46:02;;;;;;;18.60;9.35;;;1.70;99.90;;;;;;5064830;28;20053;-69
2022/03/13 01:48:29;;;;;;;22.42;9.25;;;1.70;99.90;;;;;;5065152;28;20102;-69
2022/03/13 01:50:55;;;;;;;16.98;8.80;;;1.70;99.90;;;;;;5063829;28;20036;-69
2022/03/13 01:53:21;;;;;;;18.05;9.35;;;1.70;99.90;;;;;;5064652;28;20045;-69
2022/03/13 01:55:55;;;;;;;18.02;8.80;;;1.60;99.90;;;;;;5064153;28;20037;-69
2022/03/13 01:58:20;;;;;;;19.20;10.05;;;1.60;99.90;;;;;;5064316;28;20503;-69
2022/03/13 02:00:46;;;;;;;19.08;9.25;;;1.50;99.90;;;;;;5064249;28;20086;-69
2022/03/13 02:03:12;;;;;;;16.90;9.18;;;1.50;99.90;;;;;;5059843;28;20032;-68
2022/03/13 02:05:38;;;;;;;18.25;8.77;;;1.50;99.90;;;;;;5059386;28;20049;-69
2022/03/13 02:08:20;;;;;;;25.05;10.02;;;1.60;98.90;;;;;;5065366;28;20032;-69
2022/03/13 02:10:46;;;;;;;18.08;9.50;;;1.50;99.90;;;;;;5064271;28;20733;-69
2022/03/13 02:13:18;;;;;;;17.95;9.02;;;1.40;99.90;;;;;;5064843;28;20171;-67
2022/03/13 02:15:44;;;;;;;20.67;10.30;;;1.50;99.90;;;;;;5063393;28;20111;-67
2022/03/13 02:18:10;;;;;;;16.67;8.95;;;1.50;99.50;;;;;;5064560;28;20032;-67
2022/03/13 02:20:44;;;;;;;20.63;10.68;;;1.50;98.50;;;;;;5064581;28;20047;-67
2022/03/13 02:23:24;;;;;;;19.35;9.52;;;1.50;99.80;;;;;;5058515;28;20036;-67
2022/03/13 02:25:55;;;;;;;18.13;8.48;;;1.50;99.70;;;;;;5058163;28;20404;-67
2022/03/13 02:28:24;;;;;;;17.95;8.80;;;1.60;98.40;;;;;;5063942;28;20464;-67
2022/03/13 02:30:51;;;;;;;17.48;8.90;;;1.60;96.90;;;;;;5056737;28;20040;-67
2022/03/13 02:33:19;;;;;;;41.05;9.80;;;1.50;98.50;;;;;;5061369;28;20063;-67
2022/03/13 02:35:58;;;;;;;17.40;8.90;;;1.60;98.80;;;;;;5063191;28;20044;-67
2022/03/13 02:38:25;;;;;;;18.60;9.10;;;1.50;99.60;;;;;;5063386;28;20114;-67
2022/03/13 02:40:52;;;;;;;21.65;8.27;;;1.50;99.00;;;;;;5063336;28;20103;-67
2022/03/13 02:43:18;;;;;;;14.48;8.38;;;1.60;97.70;;;;;;5064013;28;20104;-67
2022/03/13 02:45:44;;;;;;;18.15;8.75;;;1.60;98.70;;;;;;5063354;28;20052;-67
2022/03/13 02:48:10;;;;;;;15.07;7.43;;;1.50;99.20;;;;;;5063212;28;20590;-66
2022/03/13 02:50:36;;;;;;;16.88;8.27;;;1.50;97.80;;;;;;5055580;28;20032;-67
2022/03/13 02:53:03;;;;;;;23.42;9.02;;;1.60;97.80;;;;;;5063476;28;20932;-67
2022/03/13 02:55:29;;;;;;;17.25;8.70;;;1.60;96.50;;;;;;5062864;28;20040;-67
2022/03/13 02:57:55;;;;;;;18.35;7.68;;;1.60;96.60;;;;;;5063857;28;20024;-67
2022/03/13 03:00:21;;;;;;;14.38;7.13;;;1.70;95.00;;;;;;5062571;28;20671;-67
2022/03/13 03:02:48;;;;;;;18.80;9.00;;;1.70;95.80;;;;;;5062724;28;20028;-67
2022/03/13 03:05:14;;;;;;;18.05;8.55;;;1.70;94.90;;;;;;5061812;28;20496;-67
2022/03/13 03:07:40;;;;;;;14.90;7.32;;;1.70;96.10;;;;;;5062903;28;20520;-67
2022/03/13 03:10:12;;;;;;;16.17;7.35;;;1.70;96.60;;;;;;5061626;28;20051;-67
2022/03/13 03:12:38;;;;;;;14.52;7.05;;;1.60;96.60;;;;;;5063530;28;20044;-67
2022/03/13 03:15:05;;;;;;;13.70;7.55;;;1.60;95.50;;;;;;5061966;28;20040;-67
2022/03/13 03:17:30;;;;;;;14.60;7.55;;;1.60;95.40;;;;;;5061853;28;20079;-67
2022/03/13 03:19:56;;;;;;;12.63;6.90;;;1.60;96.00;;;;;;5062296;28;20377;-67
2022/03/13 03:22:21;;;;;;;14.43;7.38;;;1.70;94.60;;;;;;5063122;28;20063;-67
2022/03/13 03:24:48;;;;;;;14.95;7.75;;;1.70;94.30;;;;;;5062125;28;20035;-67
2022/03/13 03:27:16;;;;;;;14.15;7.65;;;1.80;93.80;;;;;;5063518;28;20044;-67
2022/03/13 03:29:42;;;;;;;16.48;7.45;;;1.80;94.10;;;;;;5063536;28;20116;-67
2022/03/13 03:32:08;;;;;;;12.45;7.25;;;1.80;93.30;;;;;;5063454;28;20123;-67
2022/03/13 03:34:33;;;;;;;14.88;7.28;;;1.80;93.40;;;;;;5063024;28;20090;-67
2022/03/13 03:37:01;;;;;;;13.95;7.47;;;1.80;92.90;;;;;;5063416;28;20047;-67
2022/03/13 03:39:29;;;;;;;12.98;7.40;;;1.80;93.10;;;;;;5063304;28;20044;-67
2022/03/13 03:41:55;;;;;;;14.93;6.85;;;1.90;91.40;;;;;;5063920;28;20140;-67
2022/03/13 03:44:22;;;;;;;15.18;7.18;;;1.80;92.40;;;;;;5062964;28;20041;-67
2022/03/13 03:46:48;;;;;;;15.88;7.82;;;1.90;91.30;;;;;;5063647;28;20051;-67
2022/03/13 03:49:15;;;;;;;15.85;7.20;;;1.90;92.00;;;;;;5063389;28;20047;-67
2022/03/13 03:51:43;;;;;;;21.35;7.20;;;1.90;92.00;;;;;;5062554;28;20040;-67
2022/03/13 03:54:10;;;;;;;12.07;6.60;;;1.90;91.90;;;;;;5065187;28;20539;-67
2022/03/13 03:56:36;;;;;;;14.27;6.72;;;1.90;92.00;;;;;;5067475;28;20660;-67
2022/03/13 03:59:03;;;;;;;16.60;7.32;;;1.90;92.50;;;;;;5069242;28;20094;-67
2022/03/13 04:01:36;;;;;;;17.52;7.55;;;1.80;94.40;;;;;;5067921;28;20044;-68
2022/03/13 04:04:02;;;;;;;11.98;6.38;;;1.80;94.30;;;;;;5066542;28;20068;-67
2022/03/13 04:06:29;;;;;;;13.32;5.88;;;1.80;92.90;;;;;;5065832;28;20051;-67
2022/03/13 04:08:55;;;;;;;13.57;7.15;;;1.80;91.50;;;;;;5066889;28;20574;-67
2022/03/13 04:11:21;;;;;;;10.93;6.03;;;1.90;90.10;;;;;;5066595;28;20064;-67
2022/03/13 04:13:47;;;;;;;11.60;5.85;;;1.90;90.30;;;;;;5066474;28;20051;-67
2022/03/13 04:16:12;;;;;;;12.48;6.30;;;2.00;89.70;;;;;;5062014;28;20067;-67
2022/03/13 04:18:38;;;;;;;14.20;6.60;;;2.00;90.50;;;;;;5058205;28;20028;-67
2022/03/13 04:21:05;;;;;;;12.52;6.93;;;1.90;91.60;;;;;;5064601;28;20071;-67
2022/03/13 04:23:32;;;;;;;18.63;6.95;;;2.00;90.00;;;;;;5065748;28;20052;-67
2022/03/13 04:25:59;;;;;;;11.77;6.68;;;2.00;91.10;;;;;;5066342;28;20044;-67
2022/03/13 04:28:25;;;;;;;15.35;7.25;;;2.00;88.40;;;;;;5065195;28;20040;-67
2022/03/13 04:30:56;;;;;;;13.02;6.80;;;2.00;89.90;;;;;;5065499;28;20663;-67
2022/03/13 04:33:23;;;;;;;13.18;6.10;;;2.10;87.20;;;;;;5064433;28;20044;-67
2022/03/13 04:35:49;;;;;;;12.65;6.30;;;2.10;89.70;;;;;;5064753;28;20119;-67
2022/03/13 04:38:15;;;;;;;19.38;6.68;;;2.10;88.60;;;;;;5062142;28;20636;-67
2022/03/13 04:40:41;;;;;;;10.15;5.90;;;2.10;89.50;;;;;;5065928;28;20123;-67
2022/03/13 04:43:07;;;;;;;17.20;6.57;;;2.00;88.30;;;;;;5066865;28;20041;-68
2022/03/13 04:45:34;;;;;;;14.57;6.55;;;2.10;88.20;;;;;;5065372;28;20055;-67
2022/03/13 04:48:00;;;;;;;12.15;6.28;;;2.00;88.60;;;;;;5058031;28;20736;-67
2022/03/13 04:50:26;;;;;;;12.52;6.50;;;2.00;89.30;;;;;;5064950;28;20101;-67
2022/03/13 04:52:51;;;;;;;10.65;6.35;;;2.00;88.90;;;;;;5066228;28;20575;-67
2022/03/13 04:55:18;;;;;;;16.70;6.75;;;2.00;86.00;;;;;;5064780;28;20036;-67
2022/03/13 04:57:43;;;;;;;11.23;6.50;;;2.00;87.70;;;;;;5065773;28;20032;-67
2022/03/13 05:00:09;;;;;;;9.93;5.47;;;2.00;88.30;;;;;;5065204;28;20033;-67
2022/03/13 05:02:36;;;;;;;11.80;6.30;;;2.00;85.60;;;;;;5065910;28;20048;-67
2022/03/13 05:05:02;;;;;;;15.60;6.22;;;2.00;87.50;;;;;;5066471;28;20040;-68
2022/03/13 05:07:28;;;;;;;10.68;5.95;;;2.00;87.00;;;;;;5062104;28;20040;-67
2022/03/13 05:09:54;;;;;;;12.52;6.22;;;2.00;88.70;;;;;;5067972;28;20041;-67
2022/03/13 05:12:26;;;;;;;12.95;6.13;;;2.00;86.00;;;;;;5068936;28;20040;-68
2022/03/13 05:14:52;;;;;;;11.25;5.80;;;2.00;86.80;;;;;;5066573;28;20119;-67
2022/03/13 05:17:18;;;;;;;12.38;6.40;;;2.00;85.80;;;;;;5065319;28;20797;-67
2022/03/13 05:19:44;;;;;;;12.63;6.15;;;2.00;84.10;;;;;;5066332;28;20033;-67
2022/03/13 05:22:10;;;;;;;14.20;6.50;;;2.00;84.20;;;;;;5064891;28;20040;-67
2022/03/13 05:24:36;;;;;;;14.05;6.75;;;2.00;83.20;;;;;;5065727;28;20041;-66
2022/03/13 05:27:02;;;;;;;13.82;7.28;;;2.00;82.60;;;;;;5065314;28;20044;-67
2022/03/13 05:29:27;;;;;;;15.77;6.43;;;2.10;81.50;;;;;;5065590;28;20506;-67
2022/03/13 05:31:53;;;;;;;13.38;6.13;;;2.10;83.20;;;;;;5064891;28;20043;-67
2022/03/13 05:34:18;;;;;;;12.45;6.22;;;2.10;83.00;;;;;;5064187;28;20071;-67
2022/03/13 05:36:45;;;;;;;11.15;6.28;;;2.10;83.90;;;;;;5064375;28;20047;-67
2022/03/13 05:39:11;;;;;;;12.90;7.10;;;2.10;81.10;;;;;;5067122;28;20041;-69
2022/03/13 05:41:39;;;;;;;13.00;6.45;;;2.20;79.60;;;;;;5081032;28;20036;-69
2022/03/13 05:44:09;;;;;;;12.27;6.30;;;2.20;79.50;;;;;;5067182;28;20045;-69
2022/03/13 05:46:36;;;;;;;11.45;6.10;;;2.30;78.60;;;;;;5062555;28;20052;-69
2022/03/13 05:49:02;;;;;;;14.10;5.63;;;2.40;82.20;;;;;;5063058;28;20047;-69
2022/03/13 05:51:28;;;;;;;12.52;6.10;;;2.30;81.20;;;;;;5062951;28;20515;-69
2022/03/13 05:53:53;;;;;;;14.32;7.15;;;2.30;79.80;;;;;;5060402;28;20040;-68
2022/03/13 05:56:19;;;;;;;12.73;6.90;;;2.40;81.00;;;;;;5064034;28;20040;-67
2022/03/13 05:58:45;;;;;;;12.13;6.50;;;2.30;81.80;;;;;;5063124;28;20072;-67
2022/03/13 06:01:11;;;;;;;11.93;6.25;;;2.30;82.40;;;;;;5077907;28;20043;-68
2022/03/13 06:03:38;;;;;;;10.75;6.45;;;2.30;86.90;;;;;;5062881;28;20040;-68
2022/03/13 06:06:04;;;;;;;16.77;7.40;;;2.30;82.30;;;;;;5063165;28;20040;-68
2022/03/13 06:08:31;;;;;;;15.98;6.93;;;2.30;80.70;;;;;;5062318;28;20060;-69
2022/03/13 06:10:57;;;;;;;13.65;6.57;;;2.30;80.10;;;;;;5077722;28;20036;-69
2022/03/13 06:13:24;;;;;;;10.98;6.63;;;2.30;81.40;;;;;;5064712;28;20048;-69
2022/03/13 06:15:50;;;;;;;11.32;6.45;;;2.50;79.10;;;;;;5063258;28;20819;-68
2022/03/13 06:18:16;;;;;;;17.45;6.78;;;2.50;82.00;;;;;;5061473;28;20040;-69
2022/03/13 06:20:41;;;;;;;10.30;5.63;;;2.50;80.40;;;;;;5061522;28;20040;-70
2022/03/13 06:23:09;;;;;;;12.00;6.75;;;2.50;81.60;;;;;;5059476;28;20028;-68
2022/03/13 06:25:35;;;;;;;12.65;6.78;;;2.50;79.60;;;;;;5061345;28;20125;-68
2022/03/13 06:28:00;;;;;;;14.93;6.32;;;2.60;77.80;;;;;;5055643;28;20112;-68
2022/03/13 06:30:26;;;;;;;10.05;5.85;;;2.60;82.60;;;;;;5063321;28;20504;-68
2022/03/13 06:32:53;;;;;;;11.63;6.70;;;2.70;78.70;;;;;;5063403;28;20055;-68
2022/03/13 06:35:21;;;;;;;13.48;6.55;;;2.80;78.10;;;;;;5063104;28;20424;-67
2022/03/13 06:37:49;;;;;;;12.93;6.70;;;3.00;76.50;;;;;;5062340;28;20055;-68
2022/03/13 06:40:17;;;;;;;13.70;6.90;;;3.40;78.40;;;;;;5061819;28;20040;-67
2022/03/13 06:42:44;;;;;;;12.15;6.35;;;3.80;76.30;;;;;;5068784;28;20063;-67
2022/03/13 06:45:10;;;;;;;11.73;6.53;;;4.10;73.40;;;;;;5073596;28;20065;-69
2022/03/13 06:47:37;;;;;;;10.13;6.22;;;4.30;73.60;;;;;;5072904;28;20043;-68
2022/03/13 06:50:03;;;;;;;11.60;6.50;;;4.50;70.20;;;;;;5071779;28;20041;-69
2022/03/13 06:52:28;;;;;;;11.32;5.80;;;4.60;69.50;;;;;;5071503;28;20042;-69
2022/03/13 06:54:54;;;;;;;12.98;6.72;;;4.90;71.30;;;;;;5072838;28;20044;-69
2022/03/13 06:57:19;;;;;;;14.75;6.97;;;5.20;69.70;;;;;;5074049;28;20521;-70
2022/03/13 06:59:46;;;;;;;;;;;5.50;69.50;;;;;;5063371;28;20055;-72
2022/03/13 07:02:13;;;;;;;11.77;6.53;;;5.80;66.00;;;;;;5063180;28;20332;-67
2022/03/13 07:04:39;;;;;;;11.50;5.40;;;6.10;63.00;;;;;;5063888;28;20057;-70
2022/03/13 07:07:05;;;;;;;11.73;6.03;;;6.10;61.90;;;;;;5058551;28;20076;-70
2022/03/13 07:09:32;;;;;;;10.75;5.72;;;6.40;63.70;;;;;;5063940;28;20036;-67
2022/03/13 07:11:58;;;;;;;10.93;5.85;;;7.00;62.80;;;;;;5063335;28;20116;-69
2022/03/13 07:14:24;;;;;;;;;;;7.60;59.20;;;;;;5068165;28;20515;-71
2022/03/13 07:16:50;;;;;;;9.73;5.70;;;7.70;59.70;;;;;;5075446;28;19939;-70
2022/03/13 07:19:16;;;;;;;10.13;5.72;;;8.10;56.70;;;;;;5069948;28;20037;-69
2022/03/13 07:21:42;;;;;;;;;;;8.00;56.10;;;;;;5067616;28;20412;-71
2022/03/13 07:24:08;;;;;;;12.77;6.35;;;7.90;57.50;;;;;;5067051;28;19994;-68
2022/03/13 07:26:33;;;;;;;;;;;7.70;59.50;;;;;;5075916;28;20040;-69
2022/03/13 07:29:02;;;;;;;11.85;6.13;;;7.70;59.20;;;;;;5075326;28;19951;-65
2022/03/13 07:31:31;;;;;;;8.98;5.45;;;7.80;55.60;;;;;;5066568;28;20044;-69
2022/03/13 07:33:58;;;;;;;9.77;5.93;;;7.80;55.50;;;;;;5065780;28;20095;-69
2022/03/13 07:36:24;;;;;;;8.82;5.45;;;8.30;55.20;;;;;;5069951;28;20044;-69
2022/03/13 07:38:50;;;;;;;;;;;8.40;56.40;;;;;;5076936;28;20147;-70
2022/03/13 07:41:15;;;;;;;10.20;5.40;;;8.40;51.60;;;;;;5078862;28;20589;-69
2022/03/13 07:43:41;;;;;;;;;;;8.30;52.10;;;;;;5073829;28;20112;-67
2022/03/13 07:46:06;;;;;;;10.65;5.40;;;8.20;52.10;;;;;;5067190;28;19921;-68
2022/03/13 07:48:34;;;;;;;;;;;8.40;52.80;;;;;;5068320;28;20045;-65
2022/03/13 07:51:00;;;;;;;;;;;8.80;52.10;;;;;;5067876;28;19991;-68
2022/03/13 07:53:27;;;;;;;9.02;5.57;;;9.00;49.40;;;;;;5066126;28;19920;-68
2022/03/13 07:55:54;;;;;;;9.95;5.75;;;9.30;49.10;;;;;;5066586;28;20055;-68
2022/03/13 07:58:20;;;;;;;10.02;5.68;;;9.40;50.30;;;;;;5069107;28;20028;-67
2022/03/13 08:00:45;;;;;;;;;;;9.90;49.20;;;;;;5068285;28;20036;-68
2022/03/13 08:03:11;;;;;;;10.30;5.78;;;10.10;47.00;;;;;;5084050;28;19950;-68
2022/03/13 08:05:37;;;;;;;;;;;10.00;46.10;;;;;;5066634;28;20085;-69
2022/03/13 08:08:03;;;;;;;9.07;5.45;;;10.00;46.60;;;;;;5064806;28;19920;-69
2022/03/13 08:10:29;;;;;;;;;;;10.40;47.50;;;;;;5067357;28;20152;-68
2022/03/13 08:12:54;;;;;;;10.10;5.75;;;10.50;44.60;;;;;;5067198;28;19963;-68
2022/03/13 08:15:20;;;;;;;;;;;10.70;46.60;;;;;;5066254;28;20029;-69
2022/03/13 08:17:46;;;;;;;11.80;6.47;;;11.00;45.60;;;;;;5066823;28;19916;-68
2022/03/13 08:20:12;;;;;;;;;;;11.30;46.00;;;;;;5066806;28;20661;-69
2022/03/13 08:22:38;;;;;;;7.77;5.40;;;12.00;43.50;;;;;;5066311;28;20028;-68
2022/03/13 08:25:07;;;;;;;;;;;12.40;41.60;;;;;;5066125;28;20083;-68
2022/03/13 08:27:34;;;;;;;9.10;5.43;;;12.60;40.60;;;;;;5081931;28;20375;-68
2022/03/13 08:30:03;;;;;;;8.80;5.07;;;12.50;38.00;;;;;;5066321;28;20210;-68
2022/03/13 08:32:29;;;;;;;7.30;4.55;;;12.60;40.90;;;;;;5065724;28;20110;-68
2022/03/13 08:34:55;;;;;;;;;;;12.10;40.70;;;;;;5066455;28;20430;-68
2022/03/13 08:37:20;;;;;;;11.85;6.07;;;11.20;42.70;;;;;;5065798;28;19927;-67
2022/03/13 08:39:46;;;;;;;;;;;10.10;44.90;;;;;;5060001;28;20040;-68
2022/03/13 08:42:12;;;;;;;9.32;5.40;;;9.60;46.70;;;;;;5066276;28;19922;-68
2022/03/13 08:44:37;;;;;;;;;;;9.50;48.30;;;;;;5066084;28;20037;-67
2022/03/13 08:47:04;;;;;;;9.88;5.65;;;9.30;46.00;;;;;;5066369;28;20010;-68
2022/03/13 08:49:30;;;;;;;9.75;6.05;;;9.10;46.80;;;;;;5065736;28;20032;-68
2022/03/13 08:51:55;;;;;;;;;;;9.10;47.30;;;;;;5064339;28;20047;-67
2022/03/13 08:54:21;;;;;;;9.82;5.72;;;9.20;48.00;;;;;;5055776;28;20426;-67
2022/03/13 08:56:48;;;;;;;;;;;9.10;47.50;;;;;;5066237;28;20048;-69
2022/03/13 08:59:15;;;;;;;7.70;4.75;;;9.00;48.20;;;;;;5066451;28;19916;-67
2022/03/13 09:01:42;;;;;;;9.35;6.05;;;9.10;50.70;;;;;;5064508;28;20119;-67
2022/03/13 09:04:07;;;;;;;18.98;6.75;;;9.10;48.30;;;;;;5065672;28;20120;-67
2022/03/13 09:06:33;;;;;;;;;;;9.20;48.00;;;;;;5066073;28;20567;-67
2022/03/13 09:08:58;;;;;;;9.65;5.55;;;9.10;47.20;;;;;;5065411;28;19916;-68
2022/03/13 09:11:24;;;;;;;;;;;9.20;48.50;;;;;;5065811;28;20507;-68
2022/03/13 09:13:49;;;;;;;13.57;6.10;;;9.20;48.00;;;;;;5065140;28;19960;-67
2022/03/13 09:16:15;;;;;;;;;;;9.20;48.50;;;;;;5066166;28;20949;-67
2022/03/13 09:18:41;;;;;;;15.05;6.18;;;9.40;49.40;;;;;;5065673;28;19916;-67
2022/03/13 09:21:06;;;;;;;;;;;9.50;48.30;;;;;;5065846;28;20819;-66
2022/03/13 09:23:32;;;;;;;11.75;7.03;;;9.70;49.30;;;;;;5064460;28;20241;-67
2022/03/13 09:25:58;;;;;;;11.02;6.57;;;9.70;48.10;;;;;;5065750;28;20440;-67
2022/03/13 09:28:23;;;;;;;;;;;9.80;47.40;;;;;;5066934;28;20523;-68
2022/03/13 09:30:49;;;;;;;9.30;5.75;;;9.90;49.00;;;;;;5064155;28;19916;-68
2022/03/13 09:33:15;;;;;;;12.15;6.30;;;10.10;50.40;;;;;;5066139;28;20044;-67
2022/03/13 09:35:41;;;;;;;;;;;10.20;48.00;;;;;;5066401;28;20045;-67
2022/03/13 09:38:07;;;;;;;10.60;5.90;;;10.30;46.40;;;;;;5065598;28;20502;-68
2022/03/13 09:40:33;;;;;;;15.95;6.30;;;10.40;48.00;;;;;;5065987;28;20121;-68
2022/03/13 09:43:00;;;;;;;13.35;7.05;;;10.50;48.20;;;;;;5065995;28;20040;-68
2022/03/13 09:45:26;;;;;;;16.02;6.88;;;10.60;50.30;;;;;;5065431;28;20533;-68
2022/03/13 09:47:53;;;;;;;12.35;6.90;;;10.70;48.10;;;;;;5065918;28;20044;-69
2022/03/13 09:50:20;;;;;;;13.85;7.55;;;10.80;48.40;;;;;;5064597;28;20040;-69
2022/03/13 09:52:46;;;;;;;15.10;6.93;;;10.80;48.50;;;;;;5065538;28;20052;-68
2022/03/13 09:55:13;;;;;;;;;;;10.90;48.50;;;;;;5064186;28;20046;-68
2022/03/13 09:57:41;;;;;;;15.25;7.72;;;11.00;48.20;;;;;;5047359;28;19959;-67
2022/03/13 10:00:10;;;;;;;11.18;6.32;;;11.00;47.70;;;;;;5046324;28;20146;-68
2022/03/13 10:02:40;;;;;;;16.27;6.72;;;11.10;48.70;;;;;;5068598;28;20041;-68
2022/03/13 10:05:11;;;;;;;13.25;7.50;;;11.20;48.10;;;;;;5065606;28;20045;-68
2022/03/13 10:08:02;;;;;;;12.23;7.28;;;11.30;48.20;;;;;;5055933;28;20049;-68
2022/03/13 10:10:31;;;;;;;14.50;6.95;;;11.20;47.40;;;;;;5056786;28;20072;-67
2022/03/13 10:12:56;;;;;;;12.57;7.50;;;11.30;48.80;;;;;;5064921;28;20037;-68
2022/03/13 10:15:22;;;;;;;;;;;11.30;46.50;;;;;;5064900;28;20594;-67
2022/03/13 10:17:48;;;;;;;13.80;7.07;;;11.30;47.60;;;;;;5065128;28;20007;-67
2022/03/13 10:20:27;;;;;;;10.30;6.88;;;11.20;46.30;;;;;;5064769;28;20045;-67
2022/03/13 10:22:59;;;;;;;11.35;7.47;;;11.20;47.60;;;;;;5044609;28;20044;-67
2022/03/13 10:25:34;;;;;;;17.65;6.70;;;11.30;49.10;;;;;;5044089;28;20855;-68
2022/03/13 10:28:11;;;;;;;12.95;7.65;;;11.30;47.10;;;;;;5045601;28;20056;-68
2022/03/13 10:30:37;;;;;;;13.80;6.95;;;11.30;47.50;;;;;;5045112;28;20114;-68
2022/03/13 10:33:02;;;;;;;13.00;7.65;;;11.50;47.90;;;;;;5064544;28;20162;-68
2022/03/13 10:35:28;;;;;;;;;;;11.50;47.40;;;;;;5062684;28;20127;-68
2022/03/13 10:37:55;;;;;;;25.55;7.93;;;11.50;47.40;;;;;;5059078;28;19924;-68
2022/03/13 10:40:22;;;;;;;14.57;7.03;;;11.50;47.90;;;;;;5055859;28;20040;-68
2022/03/13 10:42:50;;;;;;;11.13;7.35;;;11.60;47.70;;;;;;5064706;28;20032;-67
2022/03/13 10:45:36;;;;;;;14.20;7.47;;;11.70;48.30;;;;;;5063766;28;20427;-68
2022/03/13 10:48:32;;;;;;;12.05;7.03;;;11.70;46.30;;;;;;5064612;28;20044;-68
2022/03/13 10:51:03;;;;;;;13.13;7.70;;;11.70;48.70;;;;;;5064467;28;20082;-68
2022/03/13 10:53:30;;;;;;;12.75;7.03;;;11.80;46.70;;;;;;5063735;28;20047;-68
2022/03/13 10:56:14;;;;;;;12.30;7.22;;;12.00;48.70;;;;;;5064388;28;20049;-67
2022/03/13 10:58:44;;;;;;;13.02;8.18;;;12.10;47.50;;;;;;5044334;28;20132;-67
2022/03/13 11:01:16;;;;;;;16.00;8.60;;;12.00;48.40;;;;;;5043920;28;20032;-67
2022/03/13 11:04:06;;;;;;;18.73;7.88;;;12.00;48.00;;;;;;5063365;28;20071;-67
2022/03/13 11:06:32;;;;;;;12.98;7.57;;;12.10;49.70;;;;;;5063458;28;20407;-68
2022/03/13 11:08:59;;;;;;;13.23;7.57;;;12.30;49.40;;;;;;5063375;28;20044;-67
2022/03/13 11:11:27;;;;;;;18.25;8.88;;;12.30;47.60;;;;;;5063827;28;20763;-68
2022/03/13 11:14:01;;;;;;;12.73;7.63;;;12.20;46.80;;;;;;5078850;28;20480;-67
2022/03/13 11:16:29;;;;;;;14.30;8.15;;;12.30;48.20;;;;;;5064355;28;20037;-68
2022/03/13 11:18:57;;;;;;;15.88;9.02;;;12.30;48.10;;;;;;5062759;28;20738;-68
2022/03/13 11:21:24;;;;;;;14.27;8.32;;;12.30;49.20;;;;;;5063877;28;20037;-68
2022/03/13 11:23:51;;;;;;;17.60;8.10;;;12.40;49.60;;;;;;5043063;28;20063;-68
2022/03/13 11:26:19;;;;;;;16.27;8.32;;;12.40;47.70;;;;;;5043623;28;20112;-68
2022/03/13 11:28:47;;;;;;;16.30;9.18;;;12.20;47.30;;;;;;5064444;28;20066;-68
2022/03/13 11:31:33;;;;;;;17.38;8.98;;;12.20;47.20;;;;;;5063979;28;20055;-67
2022/03/13 11:34:12;;;;;;;14.35;8.15;;;12.20;49.10;;;;;;5063286;28;20036;-67
2022/03/13 11:36:40;;;;;;;14.35;8.65;;;12.30;47.80;;;;;;5059150;28;20043;-68
2022/03/13 11:39:08;;;;;;;13.98;8.10;;;12.30;47.80;;;;;;5051898;28;20071;-68
2022/03/13 11:41:34;;;;;;;15.93;8.30;;;12.30;46.90;;;;;;5063802;28;20032;-68
2022/03/13 11:44:30;;;;;;;12.65;7.90;;;12.20;47.70;;;;;;5063442;28;20044;-68
2022/03/13 11:46:58;;;;;;;15.10;8.57;;;12.30;48.60;;;;;;5063726;28;20434;-67
2022/03/13 11:49:31;;;;;;;12.43;7.38;;;12.30;46.00;;;;;;5079329;28;20243;-68
2022/03/13 11:52:29;;;;;;;17.63;8.00;;;12.20;45.30;;;;;;5063816;28;20036;-67
2022/03/13 11:54:57;;;;;;;17.88;8.77;;;12.30;48.40;;;;;;5035046;28;20044;-68
2022/03/13 11:57:24;;;;;;;16.42;9.00;;;12.30;47.80;;;;;;5062846;28;20120;-68
2022/03/13 12:00:13;;;;;;;13.32;8.40;;;12.20;47.70;;;;;;5063672;28;20085;-69
2022/03/13 12:02:41;;;;;;;15.32;8.00;;;12.20;47.30;;;;;;5057557;28;20032;-68
2022/03/13 12:05:25;;;;;;;13.15;8.43;;;12.30;48.60;;;;;;5062871;28;20113;-68
2022/03/13 12:08:05;;;;;;;14.35;8.38;;;12.40;48.40;;;;;;5063242;28;20041;-67
2022/03/13 12:10:41;;;;;;;26.08;14.15;;;12.50;48.60;;;;;;5055752;28;20083;-67
2022/03/13 12:13:15;;;;;;;20.65;9.73;;;12.60;48.90;;;;;;5062820;28;20748;-68
2022/03/13 12:15:43;;;;;;;22.65;12.77;;;12.60;49.60;;;;;;5055970;28;20064;-68
2022/03/13 12:18:22;;;;;;;15.48;9.38;;;12.70;47.90;;;;;;5071694;28;20044;-69
2022/03/13 12:20:50;;;;;;;16.40;8.23;;;12.70;49.30;;;;;;5067673;28;20098;-68
2022/03/13 12:23:31;;;;;;;19.85;8.70;;;12.80;48.20;;;;;;5066768;28;20052;-68
2022/03/13 12:26:32;;;;;;;17.55;8.82;;;12.80;49.70;;;;;;5067166;28;20052;-69
2022/03/13 12:28:58;;;;;;;15.88;8.52;;;12.90;48.50;;;;;;5067181;28;20185;-68
2022/03/13 12:31:27;;;;;;;15.25;9.15;;;12.90;48.90;;;;;;5060063;28;20452;-68
2022/03/13 12:33:54;;;;;;;20.05;9.55;;;12.90;48.70;;;;;;5066164;28;20090;-68
2022/03/13 12:36:23;;;;;;;16.38;9.82;;;12.90;49.40;;;;;;5066329;28;20082;-67
2022/03/13 12:38:53;;;;;;;31.55;10.88;;;12.90;49.00;;;;;;5066681;28;20114;-67
2022/03/13 12:41:19;;;;;;;19.02;10.40;;;13.00;48.50;;;;;;5066387;28;20104;-68
2022/03/13 12:43:52;;;;;;;21.98;10.52;;;12.90;48.00;;;;;;5066110;28;20044;-67
2022/03/13 12:46:19;;;;;;;18.25;10.10;;;12.90;48.60;;;;;;5066580;28;20178;-67
2022/03/13 12:48:59;;;;;;;17.98;10.20;;;12.90;49.60;;;;;;5066346;28;20093;-68
2022/03/13 12:51:44;;;;;;;18.42;10.80;;;12.80;48.80;;;;;;5066512;28;20571;-67
2022/03/13 12:54:11;;;;;;;19.52;10.18;;;12.80;48.90;;;;;;5065344;28;20041;-67